Time;durP1;ratioP1;P1;durP2;ratioP2;P2;SDS_P1;SDS_P2;PMS_P1;PMS_P2;Temp;Humidity;BMP_temperature;BMP_pressure;BME280_temperature;BME280_humidity;BME280_pressure;Samples;Min_cycle;Max_cycle;Signal;HPM_P1;HPM_P2
2023/09/13 00:00:24;;;;;;;8.35;2.40;;;18.50;1.00;;;;;;5065550;28;20037;-75
2023/09/13 00:02:50;;;;;;;7.70;2.00;;;18.50;1.00;;;;;;5039472;28;20073;-75
2023/09/13 00:05:16;;;;;;;7.75;2.40;;;18.50;1.00;;;;;;5049346;28;20071;-76
2023/09/13 00:07:41;;;;;;;4.47;2.03;;;18.40;1.00;;;;;;5044879;28;21307;-75
2023/09/13 00:10:07;;;;;;;5.90;2.22;;;18.40;1.00;;;;;;5033797;28;20028;-75
2023/09/13 00:12:34;;;;;;;7.57;2.15;;;18.30;1.00;;;;;;5038713;28;20108;-75
2023/09/13 00:14:59;;;;;;;6.18;2.08;;;18.30;1.00;;;;;;5043404;28;20072;-75
2023/09/13 00:17:26;;;;;;;4.90;1.77;;;18.30;1.00;;;;;;5052830;28;20079;-76
2023/09/13 00:19:56;;;;;;;6.10;1.63;;;18.20;1.00;;;;;;5044978;28;20198;-75
2023/09/13 00:22:22;;;;;;;6.55;2.20;;;18.20;1.00;;;;;;5037336;28;20119;-76
2023/09/13 00:24:47;;;;;;;5.95;1.67;;;18.20;1.00;;;;;;5054658;28;20051;-75
2023/09/13 00:27:13;;;;;;;6.68;1.45;;;18.20;1.00;;;;;;5027768;28;20036;-75
2023/09/13 00:29:39;;;;;;;6.10;1.85;;;18.10;1.00;;;;;;5037795;28;20044;-75
2023/09/13 00:32:05;;;;;;;6.97;1.50;;;18.00;1.00;;;;;;5035687;28;20421;-76
2023/09/13 00:34:31;;;;;;;7.45;2.25;;;18.00;1.00;;;;;;5038154;28;20041;-76
2023/09/13 00:36:57;;;;;;;5.35;1.55;;;18.00;1.00;;;;;;5035398;28;20509;-75
2023/09/13 00:39:22;;;;;;;4.38;1.55;;;18.00;1.00;;;;;;5054514;28;20044;-76
2023/09/13 00:41:48;;;;;;;5.07;1.45;;;17.90;1.00;;;;;;5038148;28;20102;-75
2023/09/13 00:44:14;;;;;;;4.57;1.70;;;17.90;1.00;;;;;;5052663;28;20482;-75
2023/09/13 00:46:42;;;;;;;4.93;1.55;;;17.80;1.00;;;;;;5035856;28;20044;-75
2023/09/13 00:49:08;;;;;;;5.20;1.67;;;17.90;1.00;;;;;;5034632;28;20032;-75
2023/09/13 00:51:34;;;;;;;4.30;1.40;;;17.90;1.00;;;;;;5042216;28;20655;-74
2023/09/13 00:54:01;;;;;;;5.43;1.90;;;17.80;1.00;;;;;;5032892;28;20029;-74
2023/09/13 00:56:27;;;;;;;7.10;1.60;;;17.70;1.00;;;;;;5034624;28;20052;-74
2023/09/13 00:58:53;;;;;;;5.68;1.98;;;17.70;1.00;;;;;;5050404;28;20036;-74
2023/09/13 01:01:20;;;;;;;9.05;1.63;;;17.60;1.00;;;;;;5049495;28;20173;-74
2023/09/13 01:03:46;;;;;;;5.78;1.88;;;17.50;1.00;;;;;;5046083;28;20403;-74
2023/09/13 01:06:12;;;;;;;3.97;1.60;;;17.40;16.30;;;;;;5048037;28;20052;-74
2023/09/13 01:08:42;;;;;;;9.43;1.77;;;17.40;45.60;;;;;;5048654;28;20037;-74
2023/09/13 01:11:08;;;;;;;4.07;1.60;;;17.30;69.80;;;;;;5034788;28;20159;-74
2023/09/13 01:13:34;;;;;;;6.75;1.77;;;17.20;89.80;;;;;;5031972;28;20206;-73
2023/09/13 01:16:21;;;;;;;4.82;1.77;;;17.20;97.50;;;;;;5036670;28;20044;-74
2023/09/13 01:18:59;;;;;;;4.68;1.60;;;17.10;99.90;;;;;;5049505;28;20750;-74
2023/09/13 01:21:32;;;;;;;5.20;1.63;;;17.00;99.90;;;;;;5042658;28;20036;-74
2023/09/13 01:24:49;;;;;;;6.00;1.85;;;17.00;99.90;;;;;;5045645;28;20132;-74
2023/09/13 01:27:49;;;;;;;6.05;1.65;;;17.00;99.90;;;;;;5045039;28;20048;-74
2023/09/13 01:30:16;;;;;;;7.90;1.92;;;16.90;99.90;;;;;;5001851;28;20048;-75
2023/09/13 01:32:46;;;;;;;7.55;1.90;;;16.80;99.90;;;;;;5034234;28;20044;-74
2023/09/13 01:35:12;;;;;;;5.90;1.40;;;16.80;99.90;;;;;;5029915;28;20088;-74
2023/09/13 01:37:38;;;;;;;4.00;1.38;;;16.60;99.90;;;;;;5046033;28;20079;-74
2023/09/13 01:40:06;;;;;;;5.40;1.92;;;16.60;99.90;;;;;;5055743;28;20157;-74
2023/09/13 01:42:36;;;;;;;6.65;1.70;;;16.60;99.90;;;;;;5022346;28;20510;-74
2023/09/13 01:45:03;;;;;;;6.47;1.58;;;16.50;99.90;;;;;;5016076;28;20124;-74
2023/09/13 01:47:30;;;;;;;5.65;1.40;;;16.50;99.90;;;;;;5032753;28;20049;-74
2023/09/13 01:49:57;;;;;;;3.15;1.40;;;16.40;99.90;;;;;;5042964;28;20067;-74
2023/09/13 01:52:23;;;;;;;3.50;1.50;;;16.40;99.90;;;;;;5020828;28;20047;-74
2023/09/13 01:54:48;;;;;;;6.05;2.20;;;16.40;99.90;;;;;;5052062;28;20029;-74
2023/09/13 01:57:14;;;;;;;12.02;1.58;;;16.40;99.90;;;;;;5049540;28;20098;-74
2023/09/13 01:59:39;;;;;;;3.13;1.40;;;16.40;99.90;;;;;;5040323;28;20033;-75
2023/09/13 02:02:05;;;;;;;5.78;1.45;;;16.40;99.90;;;;;;5022429;28;20459;-74
2023/09/13 02:04:33;;;;;;;4.40;1.65;;;16.30;99.90;;;;;;5032435;28;20049;-74
2023/09/13 02:07:00;;;;;;;5.70;2.42;;;16.30;99.90;;;;;;5020355;28;20037;-74
2023/09/13 02:09:26;;;;;;;6.85;1.70;;;16.20;99.90;;;;;;5057948;28;20040;-74
2023/09/13 02:11:51;;;;;;;5.05;1.45;;;16.10;99.90;;;;;;5044861;28;20031;-74
2023/09/13 02:14:17;;;;;;;7.50;1.80;;;16.10;99.90;;;;;;5042600;28;20044;-74
2023/09/13 02:16:43;;;;;;;6.82;1.55;;;16.10;99.90;;;;;;5030921;28;20037;-74
2023/09/13 02:19:09;;;;;;;3.35;1.60;;;16.10;99.90;;;;;;5045609;28;20417;-74
2023/09/13 02:21:35;;;;;;;7.20;1.75;;;16.20;99.90;;;;;;5056709;28;20469;-74
2023/09/13 02:24:00;;;;;;;4.95;1.70;;;16.20;99.90;;;;;;5032260;28;20060;-74
2023/09/13 02:26:26;;;;;;;6.53;2.22;;;16.10;99.90;;;;;;5050814;28;20048;-74
2023/09/13 02:28:52;;;;;;;7.75;1.55;;;16.10;99.90;;;;;;5060246;28;20044;-74
2023/09/13 02:31:26;;;;;;;4.13;1.40;;;16.20;99.90;;;;;;5051169;28;20490;-74
2023/09/13 02:33:52;;;;;;;5.18;1.33;;;16.20;99.90;;;;;;5046206;28;20062;-74
2023/09/13 02:36:18;;;;;;;4.90;1.60;;;16.20;99.90;;;;;;5064582;28;20041;-74
2023/09/13 02:38:44;;;;;;;6.43;1.60;;;16.20;99.90;;;;;;5024477;28;20033;-75
2023/09/13 02:41:09;;;;;;;4.72;1.48;;;16.10;99.90;;;;;;5023800;28;20076;-74
2023/09/13 02:43:35;;;;;;;6.43;1.60;;;16.10;99.90;;;;;;5025340;28;20067;-74
2023/09/13 02:46:01;;;;;;;7.22;1.42;;;16.10;99.90;;;;;;5044669;28;20028;-74
2023/09/13 02:48:27;;;;;;;4.65;1.50;;;16.10;99.90;;;;;;5048189;28;20070;-75
2023/09/13 02:50:52;;;;;;;6.65;1.52;;;16.10;99.90;;;;;;5021329;28;20032;-75
2023/09/13 02:53:18;;;;;;;6.80;1.52;;;16.00;99.90;;;;;;5048730;28;20032;-75
2023/09/13 02:55:44;;;;;;;8.52;1.45;;;16.00;99.90;;;;;;5027157;28;20473;-75
2023/09/13 02:58:11;;;;;;;6.53;1.42;;;16.00;99.90;;;;;;5033905;28;20049;-74
2023/09/13 03:00:36;;;;;;;6.78;1.50;;;16.00;99.90;;;;;;5033667;28;20055;-75
2023/09/13 03:03:02;;;;;;;5.97;1.35;;;16.00;99.90;;;;;;5048682;28;20483;-75
2023/09/13 03:05:28;;;;;;;6.95;1.70;;;16.00;99.90;;;;;;5041541;28;20045;-74
2023/09/13 03:07:56;;;;;;;4.00;1.83;;;16.00;99.90;;;;;;5032951;28;20044;-74
2023/09/13 03:10:28;;;;;;;4.40;1.58;;;16.00;99.90;;;;;;5024921;28;20125;-75
2023/09/13 03:12:54;;;;;;;4.82;1.40;;;16.00;99.90;;;;;;5049167;28;20493;-75
2023/09/13 03:15:19;;;;;;;6.85;1.30;;;16.00;99.90;;;;;;5042369;28;20048;-75
2023/09/13 03:17:45;;;;;;;7.50;1.63;;;16.00;99.90;;;;;;5049915;28;20025;-74
2023/09/13 03:20:11;;;;;;;3.85;1.40;;;16.00;99.90;;;;;;5035760;28;20174;-75
2023/09/13 03:22:37;;;;;;;4.63;1.70;;;16.00;99.90;;;;;;5029037;28;20052;-75
2023/09/13 03:25:05;;;;;;;5.13;1.80;;;16.00;99.90;;;;;;5031317;28;20036;-75
2023/09/13 03:27:31;;;;;;;3.92;1.10;;;16.00;99.90;;;;;;5044509;28;20041;-75
2023/09/13 03:29:58;;;;;;;4.38;1.23;;;16.00;99.90;;;;;;5028132;28;20048;-75
2023/09/13 03:32:29;;;;;;;5.38;1.92;;;16.00;99.90;;;;;;5049339;28;20417;-75
2023/09/13 03:34:54;;;;;;;4.05;1.23;;;16.00;99.90;;;;;;5046001;28;20051;-75
2023/09/13 03:37:20;;;;;;;9.77;2.22;;;16.00;99.90;;;;;;5041336;28;20041;-74
2023/09/13 03:39:45;;;;;;;4.80;1.45;;;16.00;99.90;;;;;;5040758;28;20032;-75
2023/09/13 03:42:11;;;;;;;8.57;1.42;;;16.00;99.90;;;;;;5028998;28;20083;-75
2023/09/13 03:44:37;;;;;;;7.85;1.73;;;15.90;99.90;;;;;;5047952;28;20075;-74
2023/09/13 03:47:02;;;;;;;5.85;1.60;;;15.90;99.90;;;;;;5033662;28;20041;-75
2023/09/13 03:49:28;;;;;;;5.00;1.45;;;15.90;99.90;;;;;;5034391;28;20047;-75
2023/09/13 03:51:54;;;;;;;6.32;1.58;;;16.00;99.90;;;;;;5021314;28;20041;-74
2023/09/13 03:54:19;;;;;;;5.32;1.30;;;16.00;99.90;;;;;;5026762;28;20079;-74
2023/09/13 03:56:45;;;;;;;6.65;1.50;;;16.00;99.90;;;;;;5030117;28;20052;-75
2023/09/13 03:59:11;;;;;;;4.88;1.50;;;16.00;99.90;;;;;;5027113;28;20225;-75
2023/09/13 04:01:37;;;;;;;5.97;1.88;;;16.10;99.90;;;;;;5042372;28;20036;-74
2023/09/13 04:04:02;;;;;;;7.53;1.75;;;16.00;99.90;;;;;;5050221;28;20048;-75
2023/09/13 04:06:28;;;;;;;11.15;2.47;;;16.00;99.90;;;;;;5031133;28;20047;-74
2023/09/13 04:08:57;;;;;;;7.63;2.22;;;16.00;99.90;;;;;;5028459;28;20480;-74
2023/09/13 04:11:22;;;;;;;6.28;2.00;;;16.00;99.90;;;;;;5041468;28;20143;-74
2023/09/13 04:13:48;;;;;;;6.18;1.60;;;16.10;99.90;;;;;;5035301;28;20036;-75
2023/09/13 04:16:17;;;;;;;4.25;1.52;;;16.00;99.90;;;;;;5045000;28;20110;-75
2023/09/13 04:18:42;;;;;;;6.32;1.50;;;16.10;99.90;;;;;;5041911;28;20500;-75
2023/09/13 04:21:08;;;;;;;7.22;1.48;;;16.00;99.90;;;;;;5027892;28;20074;-74
2023/09/13 04:23:33;;;;;;;8.50;1.42;;;16.00;99.90;;;;;;5032779;28;20159;-75
2023/09/13 04:25:59;;;;;;;5.05;1.63;;;16.00;99.90;;;;;;5050972;28;20044;-75
2023/09/13 04:28:25;;;;;;;6.75;1.70;;;16.00;99.90;;;;;;5045194;28;20049;-75
2023/09/13 04:30:51;;;;;;;5.80;1.85;;;15.90;99.90;;;;;;5024780;28;20032;-75
2023/09/13 04:33:19;;;;;;;4.55;1.65;;;15.90;99.90;;;;;;5035608;28;20048;-75
2023/09/13 04:35:45;;;;;;;5.40;1.63;;;15.90;99.90;;;;;;5037822;28;20046;-75
2023/09/13 04:38:10;;;;;;;5.03;1.67;;;15.90;99.90;;;;;;5034532;28;20043;-75
2023/09/13 04:40:41;;;;;;;5.47;1.75;;;15.90;99.90;;;;;;5047531;28;20052;-75
2023/09/13 04:43:07;;;;;;;5.45;1.50;;;15.80;99.90;;;;;;5051371;28;20098;-75
2023/09/13 04:45:33;;;;;;;9.65;1.40;;;15.80;99.90;;;;;;5048110;28;20037;-74
2023/09/13 04:47:59;;;;;;;6.20;1.20;;;15.80;99.90;;;;;;5056072;28;20053;-75
2023/09/13 04:50:25;;;;;;;6.57;1.40;;;15.80;99.90;;;;;;5040045;28;20033;-75
2023/09/13 04:52:50;;;;;;;7.82;1.20;;;15.70;99.90;;;;;;5032964;28;20037;-75
2023/09/13 04:55:18;;;;;;;2.95;1.48;;;15.70;99.90;;;;;;5052982;28;20048;-75
2023/09/13 04:57:44;;;;;;;3.35;1.13;;;15.60;99.90;;;;;;5051087;28;20032;-75
2023/09/13 05:00:11;;;;;;;4.57;1.10;;;15.60;99.90;;;;;;5032759;28;20083;-75
2023/09/13 05:02:40;;;;;;;4.30;1.30;;;15.60;99.90;;;;;;5035708;28;20051;-75
2023/09/13 05:05:06;;;;;;;4.18;1.65;;;15.50;99.90;;;;;;5042939;28;20048;-74
2023/09/13 05:07:32;;;;;;;3.08;1.05;;;15.50;99.90;;;;;;5036502;28;20127;-75
2023/09/13 05:09:58;;;;;;;5.90;1.20;;;15.40;99.90;;;;;;5044224;28;20148;-75
2023/09/13 05:12:23;;;;;;;4.00;0.80;;;15.40;99.90;;;;;;5048209;28;20070;-75
2023/09/13 05:14:49;;;;;;;6.15;1.15;;;15.40;99.90;;;;;;5052626;28;20052;-75
2023/09/13 05:17:14;;;;;;;5.60;1.05;;;15.40;99.90;;;;;;5017047;28;20068;-74
2023/09/13 05:19:40;;;;;;;3.55;1.00;;;15.30;99.90;;;;;;5026557;28;20036;-74
2023/09/13 05:22:06;;;;;;;4.32;1.20;;;15.20;99.90;;;;;;5044014;28;20046;-74
2023/09/13 05:24:31;;;;;;;2.95;1.00;;;15.10;99.90;;;;;;5035310;28;20060;-74
2023/09/13 05:26:57;;;;;;;3.95;1.00;;;15.00;99.90;;;;;;5052027;28;20033;-74
2023/09/13 05:29:23;;;;;;;4.65;1.15;;;15.00;99.90;;;;;;5030816;28;20062;-74
2023/09/13 05:31:49;;;;;;;3.88;2.03;;;14.90;99.90;;;;;;5034408;28;20137;-74
2023/09/13 05:34:14;;;;;;;5.95;1.40;;;14.90;99.90;;;;;;5035531;28;20545;-73
2023/09/13 05:36:41;;;;;;;5.97;1.30;;;14.90;99.90;;;;;;5044996;28;20068;-74
2023/09/13 05:39:07;;;;;;;5.65;1.10;;;14.80;99.90;;;;;;5035667;28;20078;-74
2023/09/13 05:41:33;;;;;;;5.90;1.13;;;14.80;99.90;;;;;;5027807;28;20071;-73
2023/09/13 05:43:59;;;;;;;3.38;1.02;;;14.70;99.90;;;;;;5027332;28;20126;-74
2023/09/13 05:46:24;;;;;;;5.80;1.15;;;14.70;99.90;;;;;;5049233;28;20047;-73
2023/09/13 05:48:50;;;;;;;5.85;1.55;;;14.60;99.90;;;;;;5045513;28;20048;-73
2023/09/13 05:51:16;;;;;;;4.30;1.13;;;14.70;99.90;;;;;;5044981;28;20162;-74
2023/09/13 05:53:42;;;;;;;5.15;1.15;;;14.60;99.90;;;;;;5043757;28;20114;-74
2023/09/13 05:56:11;;;;;;;5.85;1.10;;;14.50;99.90;;;;;;5043052;28;20032;-75
2023/09/13 05:58:37;;;;;;;4.13;1.30;;;14.60;99.90;;;;;;5048017;28;20043;-75
2023/09/13 06:01:02;;;;;;;3.38;0.90;;;14.50;99.90;;;;;;5022566;28;20128;-77
2023/09/13 06:03:30;;;;;;;1.85;1.02;;;14.40;99.90;;;;;;5041483;28;20120;-78
2023/09/13 06:05:56;;;;;;;5.97;0.90;;;14.30;99.90;;;;;;5073661;28;20153;-79
2023/09/13 06:08:24;;;;;;;5.03;1.10;;;14.30;99.90;;;;;;5030251;28;20041;-79
2023/09/13 06:10:50;;;;;;;5.47;1.13;;;14.20;99.90;;;;;;5048074;28;20087;-79
2023/09/13 06:13:16;;;;;;;4.22;1.25;;;14.10;99.90;;;;;;5047708;28;20511;-76
2023/09/13 06:15:42;;;;;;;5.50;1.27;;;14.10;99.90;;;;;;5048956;28;20044;-84
2023/09/13 06:18:07;;;;;;;5.78;1.13;;;14.10;99.90;;;;;;5028131;28;20462;-83
2023/09/13 06:20:33;;;;;;;5.05;1.67;;;14.00;99.90;;;;;;5044039;28;20037;-83
2023/09/13 06:22:59;;;;;;;4.88;1.52;;;14.00;99.90;;;;;;5046271;28;20048;-82
2023/09/13 06:25:25;;;;;;;5.90;1.17;;;14.10;99.90;;;;;;5032595;28;20082;-82
2023/09/13 06:27:51;;;;;;;6.28;1.20;;;14.10;99.90;;;;;;5027239;28;20388;-81
2023/09/13 06:30:16;;;;;;;4.57;1.50;;;14.00;99.90;;;;;;5041607;28;20055;-82
2023/09/13 06:32:42;;;;;;;3.25;1.05;;;14.10;99.90;;;;;;5044936;28;20547;-83
2023/09/13 06:35:12;;;;;;;6.55;1.33;;;14.10;99.90;;;;;;5034317;28;20044;-82
2023/09/13 06:37:39;;;;;;;4.25;1.08;;;14.10;99.90;;;;;;5041497;28;20443;-80
2023/09/13 06:40:05;;;;;;;3.17;1.25;;;14.10;99.90;;;;;;5031125;28;20415;-80
2023/09/13 06:42:31;;;;;;;7.93;1.40;;;14.20;99.90;;;;;;5044478;28;20048;-80
2023/09/13 06:44:59;;;;;;;7.40;1.80;;;14.20;99.90;;;;;;5036344;28;20044;-80
2023/09/13 06:47:26;;;;;;;4.40;1.40;;;14.20;99.90;;;;;;5030546;28;20040;-80
2023/09/13 06:49:52;;;;;;;5.28;1.58;;;14.10;99.90;;;;;;5033667;28;20038;-80
2023/09/13 06:52:17;;;;;;;6.50;1.95;;;14.10;99.90;;;;;;5045707;28;20124;-80
2023/09/13 06:54:43;;;;;;;5.43;2.25;;;14.10;99.90;;;;;;5050834;28;20040;-80
2023/09/13 06:57:09;;;;;;;7.47;1.67;;;14.10;99.90;;;;;;5023114;28;20630;-81
2023/09/13 06:59:35;;;;;;;11.25;1.70;;;14.20;99.90;;;;;;5031073;28;20033;-82
2023/09/13 07:02:01;;;;;;;6.15;2.28;;;14.10;99.90;;;;;;5043427;28;20115;-81
2023/09/13 07:04:26;;;;;;;6.15;2.10;;;14.20;99.90;;;;;;5025414;28;20036;-82
2023/09/13 07:06:52;;;;;;;6.28;2.00;;;14.20;99.90;;;;;;5026908;28;20044;-81
2023/09/13 07:09:18;;;;;;;10.45;2.60;;;14.30;99.90;;;;;;5053558;28;20036;-82
2023/09/13 07:11:43;;;;;;;11.23;2.47;;;14.30;99.90;;;;;;5041665;28;20471;-83
2023/09/13 07:14:09;;;;;;;9.77;2.03;;;14.40;99.90;;;;;;5022972;28;20123;-83
2023/09/13 07:16:35;;;;;;;9.07;2.05;;;14.40;99.90;;;;;;5027866;28;20071;-84
2023/09/13 07:19:03;;;;;;;10.27;2.38;;;14.40;99.90;;;;;;5033926;28;20024;-84
2023/09/13 07:21:29;;;;;;;8.10;1.73;;;14.40;99.90;;;;;;5049906;28;20115;-82
2023/09/13 07:23:55;;;;;;;14.75;2.70;;;14.40;99.90;;;;;;5040586;28;20027;-84
2023/09/13 07:26:21;;;;;;;7.18;1.95;;;14.50;99.90;;;;;;5047107;28;20336;-84
2023/09/13 07:28:46;;;;;;;9.75;2.65;;;14.50;99.90;;;;;;5041371;28;20044;-85
2023/09/13 07:31:12;;;;;;;10.60;2.15;;;14.60;99.90;;;;;;5043797;28;20499;-83
2023/09/13 07:33:38;;;;;;;10.60;2.15;;;14.60;99.90;;;;;;5039376;28;20171;-78
2023/09/13 07:36:04;;;;;;;8.43;2.28;;;14.70;99.90;;;;;;5030637;28;20044;-85
2023/09/13 07:38:30;;;;;;;6.80;2.05;;;14.80;99.90;;;;;;5043813;28;20036;-86
2023/09/13 07:40:58;;;;;;;10.23;3.10;;;14.80;99.90;;;;;;5031798;28;20072;-85
2023/09/13 07:43:24;;;;;;;11.43;2.20;;;14.80;99.90;;;;;;5011539;28;20102;-85
2023/09/13 07:45:51;;;;;;;7.00;1.67;;;14.90;99.90;;;;;;5017522;28;20040;-85
2023/09/13 07:48:16;;;;;;;10.07;2.50;;;14.90;99.90;;;;;;5029185;28;20044;-86
2023/09/13 07:50:42;;;;;;;5.78;1.65;;;14.90;99.90;;;;;;5022688;28;20032;-86
2023/09/13 07:53:10;;;;;;;15.43;2.70;;;14.90;99.90;;;;;;5030332;28;20150;-86
2023/09/13 07:55:36;;;;;;;12.57;2.95;;;15.00;99.90;;;;;;5024367;28;20045;-83
2023/09/13 07:58:03;;;;;;;8.75;2.00;;;15.00;99.90;;;;;;5006368;28;20037;-84
2023/09/13 08:00:29;;;;;;;11.18;2.03;;;15.10;99.90;;;;;;5018586;28;20048;-86
2023/09/13 08:02:55;;;;;;;7.22;2.15;;;15.00;99.90;;;;;;5013822;28;20044;-85
2023/09/13 08:05:21;;;;;;;4.78;1.80;;;15.00;99.90;;;;;;5021050;28;20087;-87
2023/09/13 08:07:47;;;;;;;10.40;2.30;;;15.00;99.90;;;;;;5033632;28;20126;-85
2023/09/13 08:10:13;;;;;;;7.55;2.00;;;15.10;99.90;;;;;;5017682;28;20438;-84
2023/09/13 08:12:42;;;;;;;7.55;2.00;;;15.20;99.90;;;;;;5016693;28;20121;-86
2023/09/13 08:15:08;;;;;;;6.53;2.15;;;15.20;99.90;;;;;;5028811;28;20033;-85
2023/09/13 08:17:34;;;;;;;4.25;2.03;;;15.30;99.90;;;;;;5030052;28;20037;-85
2023/09/13 08:20:02;;;;;;;5.68;2.05;;;15.30;99.90;;;;;;5010111;28;20059;-86
2023/09/13 08:22:27;;;;;;;9.23;1.83;;;15.30;99.90;;;;;;5033286;28;20520;-86
2023/09/13 08:24:53;;;;;;;9.15;2.25;;;15.30;99.90;;;;;;5028474;28;20056;-85
2023/09/13 08:27:19;;;;;;;5.20;1.70;;;15.30;99.90;;;;;;5014165;28;20094;-84
2023/09/13 08:29:45;;;;;;;5.03;1.65;;;15.30;99.90;;;;;;5042837;28;20029;-86
2023/09/13 08:32:13;;;;;;;8.25;2.00;;;15.30;99.90;;;;;;5016402;28;20517;-86
2023/09/13 08:34:38;;;;;;;7.43;1.70;;;15.40;99.90;;;;;;5029914;28;20037;-86
2023/09/13 08:37:07;;;;;;;5.70;1.90;;;15.50;99.90;;;;;;5015921;28;20036;-88
2023/09/13 08:39:35;;;;;;;4.43;1.63;;;15.80;99.90;;;;;;5014425;28;20483;-87
2023/09/13 08:42:01;;;;;;;5.53;1.77;;;16.00;99.90;;;;;;5017624;28;20548;-84
2023/09/13 08:44:31;;;;;;;5.10;1.52;;;16.10;99.90;;;;;;5033076;28;20045;-84
2023/09/13 08:46:58;;;;;;;4.93;1.30;;;16.10;99.90;;;;;;5029662;28;20041;-86
2023/09/13 08:49:25;;;;;;;4.45;1.60;;;15.90;99.90;;;;;;5016791;28;20037;-84
2023/09/13 08:51:56;;;;;;;5.68;1.60;;;15.90;99.90;;;;;;5031936;28;20079;-84
2023/09/13 08:54:22;;;;;;;8.93;1.35;;;15.80;99.90;;;;;;5008721;28;20052;-83
2023/09/13 08:56:48;;;;;;;10.75;1.50;;;15.90;99.90;;;;;;5028718;28;20457;-83
2023/09/13 08:59:15;;;;;;;6.65;1.40;;;16.00;99.90;;;;;;5012237;28;20028;-83
2023/09/13 09:01:47;;;;;;;4.10;1.20;;;16.10;99.90;;;;;;5030108;28;20047;-82
2023/09/13 09:04:17;;;;;;;4.43;1.23;;;16.30;99.90;;;;;;5028711;28;20091;-85
2023/09/13 09:06:44;;;;;;;3.00;1.30;;;16.50;99.90;;;;;;5005196;28;20499;-83
2023/09/13 09:09:21;;;;;;;9.40;2.50;;;16.70;99.90;;;;;;5007429;28;20048;-82
2023/09/13 09:11:53;;;;;;;5.22;1.50;;;16.80;99.90;;;;;;5010547;28;20087;-82
2023/09/13 09:14:21;;;;;;;4.45;1.45;;;16.80;99.90;;;;;;5008316;28;20049;-82
2023/09/13 09:16:52;;;;;;;4.30;1.52;;;16.90;99.90;;;;;;5028563;28;20049;-83
2023/09/13 09:19:18;;;;;;;6.32;1.50;;;17.00;99.90;;;;;;5015605;28;20519;-83
2023/09/13 09:21:44;;;;;;;7.32;1.65;;;16.90;99.90;;;;;;5016188;28;20036;-81
2023/09/13 09:24:09;;;;;;;6.70;1.38;;;16.90;99.90;;;;;;5033357;28;20095;-82
2023/09/13 09:26:35;;;;;;;4.63;1.20;;;16.90;99.90;;;;;;5035075;28;20049;-83
2023/09/13 09:29:14;;;;;;;4.30;1.55;;;16.90;99.90;;;;;;5014881;28;20395;-83
2023/09/13 09:31:40;;;;;;;4.53;1.10;;;16.90;99.90;;;;;;5013483;28;20045;-83
2023/09/13 09:34:08;;;;;;;5.03;1.20;;;16.80;99.90;;;;;;5006621;28;20037;-82
2023/09/13 09:36:41;;;;;;;8.02;1.63;;;16.50;99.90;;;;;;5008456;28;20077;-82
2023/09/13 09:39:10;;;;;;;5.32;1.23;;;16.30;99.90;;;;;;5013148;28;20063;-82
2023/09/13 09:41:37;;;;;;;12.05;1.85;;;16.20;99.90;;;;;;5027916;28;20059;-82
2023/09/13 09:44:04;;;;;;;7.40;1.65;;;16.10;99.90;;;;;;5028661;28;20041;-81
2023/09/13 09:46:31;;;;;;;9.15;1.52;;;16.10;99.90;;;;;;5008350;28;20045;-83
2023/09/13 09:48:57;;;;;;;6.32;1.60;;;16.10;99.90;;;;;;5019768;28;20120;-82
2023/09/13 09:51:23;;;;;;;6.53;1.30;;;16.40;99.90;;;;;;5031473;28;20582;-83
2023/09/13 09:53:49;;;;;;;8.05;1.52;;;16.70;99.90;;;;;;5024852;28;20092;-83
2023/09/13 09:56:18;;;;;;;5.38;1.33;;;16.70;99.90;;;;;;5023333;28;20596;-83
2023/09/13 09:58:46;;;;;;;5.55;1.48;;;16.60;99.90;;;;;;5021521;28;20091;-83
2023/09/13 10:01:12;;;;;;;2.78;1.30;;;16.50;99.90;;;;;;5026790;28;20529;-83
2023/09/13 10:03:38;;;;;;;5.05;1.38;;;16.40;99.90;;;;;;5022160;28;20366;-82
2023/09/13 10:06:12;;;;;;;3.08;1.00;;;16.20;99.90;;;;;;5035814;28;20619;-80
2023/09/13 10:08:49;;;;;;;6.22;1.73;;;16.00;99.90;;;;;;5038574;28;20179;-81
2023/09/13 10:11:22;;;;;;;5.40;1.63;;;15.80;99.90;;;;;;5023794;28;20135;-80
2023/09/13 10:13:48;;;;;;;5.00;1.10;;;15.80;99.90;;;;;;5004050;28;20149;-81
2023/09/13 10:16:16;;;;;;;4.82;0.95;;;15.80;99.90;;;;;;5024309;28;20048;-81
2023/09/13 10:18:52;;;;;;;8.68;1.90;;;15.80;99.90;;;;;;5006426;28;20538;-81
2023/09/13 10:21:25;;;;;;;9.63;2.72;;;15.70;99.90;;;;;;5019374;28;20040;-80
2023/09/13 10:24:01;;;;;;;4.35;1.27;;;15.50;99.90;;;;;;5027982;28;20029;-82
2023/09/13 10:26:31;;;;;;;5.30;1.60;;;15.40;99.90;;;;;;5023066;28;20053;-81
2023/09/13 10:29:05;;;;;;;3.08;1.38;;;15.40;99.90;;;;;;5004890;28;20509;-80
2023/09/13 10:31:34;;;;;;;4.53;1.42;;;15.50;99.90;;;;;;5019063;28;20049;-82
2023/09/13 10:34:06;;;;;;;8.48;1.65;;;15.70;99.90;;;;;;5009361;28;20506;-80
2023/09/13 10:36:34;;;;;;;7.32;2.13;;;15.90;99.90;;;;;;5036910;28;20075;-81
2023/09/13 10:39:16;;;;;;;4.03;1.25;;;16.10;99.90;;;;;;5021274;28;20045;-84
2023/09/13 10:41:54;;;;;;;7.38;1.60;;;16.30;99.90;;;;;;5029556;28;20538;-84
2023/09/13 10:44:20;;;;;;;7.47;1.60;;;16.50;99.90;;;;;;5042371;28;20040;-84
2023/09/13 10:46:47;;;;;;;4.93;1.70;;;16.70;99.90;;;;;;5042719;28;20501;-84
2023/09/13 10:49:13;;;;;;;7.55;1.42;;;17.00;99.90;;;;;;5041833;28;20052;-85
2023/09/13 10:51:41;;;;;;;8.18;1.63;;;17.30;99.90;;;;;;5035042;28;20055;-85
2023/09/13 10:54:08;;;;;;;5.68;1.50;;;17.40;99.90;;;;;;5027485;28;20036;-83
2023/09/13 10:56:35;;;;;;;4.22;1.20;;;17.60;99.90;;;;;;5026260;28;20037;-84
2023/09/13 10:59:01;;;;;;;4.57;1.20;;;17.90;99.90;;;;;;5030692;28;20021;-84
2023/09/13 11:01:27;;;;;;;5.15;1.42;;;18.00;99.90;;;;;;5040919;28;20044;-85
2023/09/13 11:03:54;;;;;;;5.47;1.90;;;18.30;99.90;;;;;;5030809;28;20049;-85
2023/09/13 11:06:22;;;;;;;2.67;1.38;;;19.10;99.90;;;;;;5044795;28;20375;-85
2023/09/13 11:08:48;;;;;;;4.32;1.33;;;19.90;99.90;;;;;;5034305;28;20503;-85
2023/09/13 11:11:17;;;;;;;3.63;1.35;;;20.00;99.90;;;;;;5054614;28;20036;-86
2023/09/13 11:13:45;;;;;;;4.07;1.75;;;20.30;99.90;;;;;;5033990;28;20037;-85
2023/09/13 11:16:15;;;;;;;3.45;1.27;;;20.10;50.90;;;;;;5051268;28;20075;-85
2023/09/13 11:18:52;;;;;;;3.67;1.48;;;19.70;53.90;;;;;;5026456;28;20033;-86
2023/09/13 11:21:44;;;;;;;4.32;1.20;;;19.90;99.90;;;;;;5032419;28;20104;-85
2023/09/13 11:24:11;;;;;;;3.92;1.85;;;20.00;72.30;;;;;;5021524;28;20119;-85
2023/09/13 11:26:48;;;;;;;3.33;1.15;;;19.90;55.00;;;;;;5030390;28;20543;-84
2023/09/13 11:29:26;;;;;;;3.42;1.20;;;20.20;1.00;;;;;;5049958;28;20139;-85
2023/09/13 11:32:04;;;;;;;5.93;2.72;;;20.90;1.00;;;;;;5034007;28;20098;-86
2023/09/13 11:34:34;;;;;;;2.72;1.05;;;21.10;1.00;;;;;;5042987;28;20044;-85
2023/09/13 11:37:03;;;;;;;4.30;1.20;;;21.70;1.00;;;;;;5064889;28;20064;-86
2023/09/13 11:39:30;;;;;;;3.53;1.25;;;22.80;1.00;;;;;;5030704;28;20803;-87
2023/09/13 11:41:56;;;;;;;4.50;1.83;;;23.10;99.90;;;;;;5019523;28;20422;-86
2023/09/13 11:44:26;;;;;;;2.05;1.20;;;23.10;1.00;;;;;;5018311;28;20041;-86
2023/09/13 11:46:53;;;;;;;2.90;1.02;;;22.90;1.00;;;;;;5017973;28;20036;-87
2023/09/13 11:49:21;;;;;;;5.32;1.52;;;23.60;1.00;;;;;;5021445;28;20514;-88
2023/09/13 11:51:55;;;;;;;3.38;1.10;;;24.30;99.90;;;;;;5012913;28;20042;-87
2023/09/13 11:54:22;;;;;;;3.67;1.05;;;25.50;99.90;;;;;;5029457;28;20120;-86
2023/09/13 11:56:49;;;;;;;2.30;0.95;;;26.10;10.00;;;;;;5023692;28;20047;-87
2023/09/13 11:59:29;;;;;;;3.53;1.00;;;26.70;1.00;;;;;;5028238;28;20138;-87
2023/09/13 12:01:55;;;;;;;3.15;1.10;;;26.00;1.00;;;;;;5047915;28;20036;-86
2023/09/13 12:04:24;;;;;;;4.50;1.00;;;24.70;1.00;;;;;;5027870;28;20040;-86
2023/09/13 12:06:54;;;;;;;1.92;0.75;;;23.60;1.00;;;;;;5017203;28;20446;-86
2023/09/13 12:09:21;;;;;;;7.88;1.63;;;22.80;1.00;;;;;;5027649;28;20207;-86
2023/09/13 12:11:51;;;;;;;2.92;1.02;;;21.90;1.00;;;;;;5011807;28;20500;-86
2023/09/13 12:14:18;;;;;;;3.20;0.90;;;21.40;1.00;;;;;;5005772;28;20049;-86
2023/09/13 12:16:48;;;;;;;1.48;0.60;;;22.30;80.80;;;;;;5031435;28;20053;-85
2023/09/13 12:19:14;;;;;;;3.70;1.48;;;23.90;1.00;;;;;;5028146;28;20476;-87
2023/09/13 12:21:44;;;;;;;3.97;1.00;;;24.40;1.00;;;;;;5017996;28;20043;-86
2023/09/13 12:24:12;;;;;;;2.63;0.70;;;23.80;1.00;;;;;;5035948;28;20040;-86
2023/09/13 12:26:39;;;;;;;3.90;1.13;;;23.30;1.00;;;;;;5035050;28;20056;-86
2023/09/13 12:29:05;;;;;;;1.65;0.60;;;23.30;1.00;;;;;;5004709;28;20443;-86
2023/09/13 12:31:31;;;;;;;3.22;1.00;;;23.20;1.00;;;;;;5031669;28;20041;-86
2023/09/13 12:33:59;;;;;;;2.28;0.88;;;22.70;1.00;;;;;;5017768;28;20044;-86
2023/09/13 12:36:25;;;;;;;1.90;0.80;;;22.60;1.00;;;;;;5024670;28;20056;-85
2023/09/13 12:38:51;;;;;;;3.53;0.98;;;23.20;1.00;;;;;;5011026;28;20033;-86
2023/09/13 12:41:19;;;;;;;2.75;1.10;;;23.20;1.00;;;;;;5016461;28;20414;-86
2023/09/13 12:43:48;;;;;;;2.22;0.80;;;23.10;1.00;;;;;;5011354;28;20083;-87
2023/09/13 12:46:22;;;;;;;1.42;0.75;;;23.20;1.00;;;;;;5013174;28;20048;-86
2023/09/13 12:48:49;;;;;;;5.07;1.17;;;23.20;1.00;;;;;;5009761;28;20041;-86